sensor_id;sensor_type;location;lat;lon;timestamp;temperature;humidity
680;DHT22;322;48.846;9.230;2023-07-08T00:02:15;19.30;61.70
680;DHT22;322;48.846;9.230;2023-07-08T00:04:43;19.20;62.40
680;DHT22;322;48.846;9.230;2023-07-08T00:07:13;19.00;61.60
680;DHT22;322;48.846;9.230;2023-07-08T00:09:43;18.90;67.60
680;DHT22;322;48.846;9.230;2023-07-08T00:12:12;18.90;64.10
680;DHT22;322;48.846;9.230;2023-07-08T00:14:40;18.80;59.90
680;DHT22;322;48.846;9.230;2023-07-08T00:17:10;18.70;62.20
680;DHT22;322;48.846;9.230;2023-07-08T00:19:39;18.60;63.50
680;DHT22;322;48.846;9.230;2023-07-08T00:22:12;18.50;62.60
680;DHT22;322;48.846;9.230;2023-07-08T00:24:42;18.40;64.30
680;DHT22;322;48.846;9.230;2023-07-08T00:27:12;18.40;66.70
680;DHT22;322;48.846;9.230;2023-07-08T00:29:40;18.50;67.50
680;DHT22;322;48.846;9.230;2023-07-08T00:32:11;18.50;64.90
680;DHT22;322;48.846;9.230;2023-07-08T00:34:40;18.60;64.10
680;DHT22;322;48.846;9.230;2023-07-08T00:37:11;18.80;60.30
680;DHT22;322;48.846;9.230;2023-07-08T00:39:39;18.80;59.50
680;DHT22;322;48.846;9.230;2023-07-08T00:42:15;18.80;64.30
680;DHT22;322;48.846;9.230;2023-07-08T00:44:44;18.80;60.60
680;DHT22;322;48.846;9.230;2023-07-08T00:47:14;18.80;60.20
680;DHT22;322;48.846;9.230;2023-07-08T00:49:46;18.80;64.10
680;DHT22;322;48.846;9.230;2023-07-08T00:52:17;18.70;67.80
680;DHT22;322;48.846;9.230;2023-07-08T00:54:48;18.60;68.40
680;DHT22;322;48.846;9.230;2023-07-08T00:57:18;18.50;61.10
680;DHT22;322;48.846;9.230;2023-07-08T00:59:50;18.70;60.00
680;DHT22;322;48.846;9.230;2023-07-08T01:02:22;18.70;60.60
680;DHT22;322;48.846;9.230;2023-07-08T01:04:52;18.60;59.60
680;DHT22;322;48.846;9.230;2023-07-08T01:07:23;18.70;64.60
680;DHT22;322;48.846;9.230;2023-07-08T01:09:55;18.50;65.70
680;DHT22;322;48.846;9.230;2023-07-08T01:12:29;18.40;66.00
680;DHT22;322;48.846;9.230;2023-07-08T01:14:59;18.10;65.70
680;DHT22;322;48.846;9.230;2023-07-08T01:17:29;18.10;63.90
680;DHT22;322;48.846;9.230;2023-07-08T01:19:59;18.00;65.10
680;DHT22;322;48.846;9.230;2023-07-08T01:22:34;17.90;66.80
680;DHT22;322;48.846;9.230;2023-07-08T01:25:03;17.80;69.30
680;DHT22;322;48.846;9.230;2023-07-08T01:27:33;17.80;70.10
680;DHT22;322;48.846;9.230;2023-07-08T01:30:03;17.70;68.70
680;DHT22;322;48.846;9.230;2023-07-08T01:32:34;17.70;71.40
680;DHT22;322;48.846;9.230;2023-07-08T01:35:04;17.70;69.20
680;DHT22;322;48.846;9.230;2023-07-08T01:37:36;17.50;68.90
680;DHT22;322;48.846;9.230;2023-07-08T01:40:25;17.50;69.10
680;DHT22;322;48.846;9.230;2023-07-08T01:42:54;17.50;71.60
680;DHT22;322;48.846;9.230;2023-07-08T01:45:24;17.40;72.10
680;DHT22;322;48.846;9.230;2023-07-08T01:47:55;17.30;71.70
680;DHT22;322;48.846;9.230;2023-07-08T01:50:25;17.30;74.00
680;DHT22;322;48.846;9.230;2023-07-08T01:52:58;17.50;69.20
680;DHT22;322;48.846;9.230;2023-07-08T01:55:27;17.50;73.50
680;DHT22;322;48.846;9.230;2023-07-08T01:57:57;17.40;73.90
680;DHT22;322;48.846;9.230;2023-07-08T02:00:25;17.30;73.30
680;DHT22;322;48.846;9.230;2023-07-08T02:02:53;17.20;73.40
680;DHT22;322;48.846;9.230;2023-07-08T02:05:21;17.20;73.30
680;DHT22;322;48.846;9.230;2023-07-08T02:07:50;17.20;73.40
680;DHT22;322;48.846;9.230;2023-07-08T02:10:19;17.20;76.00
680;DHT22;322;48.846;9.230;2023-07-08T02:12:47;17.30;75.80
680;DHT22;322;48.846;9.230;2023-07-08T02:15:15;17.20;75.60
680;DHT22;322;48.846;9.230;2023-07-08T02:17:43;17.10;77.00
680;DHT22;322;48.846;9.230;2023-07-08T02:20:11;16.90;75.40
680;DHT22;322;48.846;9.230;2023-07-08T02:22:39;16.80;75.60
680;DHT22;322;48.846;9.230;2023-07-08T02:25:07;16.70;75.20
680;DHT22;322;48.846;9.230;2023-07-08T02:27:38;16.60;76.30
680;DHT22;322;48.846;9.230;2023-07-08T02:30:06;16.70;74.40
680;DHT22;322;48.846;9.230;2023-07-08T02:32:36;16.80;73.70
680;DHT22;322;48.846;9.230;2023-07-08T02:35:06;16.80;73.00
680;DHT22;322;48.846;9.230;2023-07-08T02:37:34;16.80;72.20
680;DHT22;322;48.846;9.230;2023-07-08T02:40:02;16.90;75.30
680;DHT22;322;48.846;9.230;2023-07-08T02:42:30;16.80;75.40
680;DHT22;322;48.846;9.230;2023-07-08T02:45:00;16.80;77.90
680;DHT22;322;48.846;9.230;2023-07-08T02:47:27;16.80;75.20
680;DHT22;322;48.846;9.230;2023-07-08T02:49:55;16.80;77.00
680;DHT22;322;48.846;9.230;2023-07-08T02:52:23;16.70;76.50
680;DHT22;322;48.846;9.230;2023-07-08T02:54:51;16.70;74.60
680;DHT22;322;48.846;9.230;2023-07-08T02:57:19;16.70;78.90
680;DHT22;322;48.846;9.230;2023-07-08T02:59:47;16.80;75.50
680;DHT22;322;48.846;9.230;2023-07-08T03:02:16;16.80;75.30
680;DHT22;322;48.846;9.230;2023-07-08T03:04:44;16.90;74.50
680;DHT22;322;48.846;9.230;2023-07-08T03:07:14;16.90;74.90
680;DHT22;322;48.846;9.230;2023-07-08T03:09:42;16.90;73.90
680;DHT22;322;48.846;9.230;2023-07-08T03:12:11;16.90;77.20
680;DHT22;322;48.846;9.230;2023-07-08T03:14:39;16.90;78.10
680;DHT22;322;48.846;9.230;2023-07-08T03:17:07;16.80;79.20
680;DHT22;322;48.846;9.230;2023-07-08T03:19:36;16.90;78.60
680;DHT22;322;48.846;9.230;2023-07-08T03:22:04;16.80;78.30
680;DHT22;322;48.846;9.230;2023-07-08T03:24:34;16.80;77.90
680;DHT22;322;48.846;9.230;2023-07-08T03:27:03;16.80;78.40
680;DHT22;322;48.846;9.230;2023-07-08T03:29:32;16.80;78.40
680;DHT22;322;48.846;9.230;2023-07-08T03:31:59;16.80;79.80
680;DHT22;322;48.846;9.230;2023-07-08T03:34:27;16.70;81.60
680;DHT22;322;48.846;9.230;2023-07-08T03:36:57;16.60;80.20
680;DHT22;322;48.846;9.230;2023-07-08T03:39:25;16.50;79.00
680;DHT22;322;48.846;9.230;2023-07-08T03:41:54;16.50;79.50
680;DHT22;322;48.846;9.230;2023-07-08T03:44:22;16.40;79.50
680;DHT22;322;48.846;9.230;2023-07-08T03:46:50;16.40;83.60
680;DHT22;322;48.846;9.230;2023-07-08T03:49:19;16.40;81.40
680;DHT22;322;48.846;9.230;2023-07-08T03:51:50;16.30;81.30
680;DHT22;322;48.846;9.230;2023-07-08T03:54:20;16.30;81.20
680;DHT22;322;48.846;9.230;2023-07-08T03:56:49;16.30;82.40
680;DHT22;322;48.846;9.230;2023-07-08T03:59:17;16.40;83.50
680;DHT22;322;48.846;9.230;2023-07-08T04:01:45;16.40;83.40
680;DHT22;322;48.846;9.230;2023-07-08T04:04:14;16.40;83.30
680;DHT22;322;48.846;9.230;2023-07-08T04:06:43;16.30;85.90
680;DHT22;322;48.846;9.230;2023-07-08T04:09:12;16.40;83.20
680;DHT22;322;48.846;9.230;2023-07-08T04:11:41;16.40;82.90
680;DHT22;322;48.846;9.230;2023-07-08T04:14:09;16.40;82.00
680;DHT22;322;48.846;9.230;2023-07-08T04:16:47;16.60;83.40
680;DHT22;322;48.846;9.230;2023-07-08T04:19:15;16.70;80.80
680;DHT22;322;48.846;9.230;2023-07-08T04:21:45;16.90;83.10
680;DHT22;322;48.846;9.230;2023-07-08T04:24:14;16.80;82.90
680;DHT22;322;48.846;9.230;2023-07-08T04:26:46;16.80;82.80
680;DHT22;322;48.846;9.230;2023-07-08T04:29:17;17.00;81.10
680;DHT22;322;48.846;9.230;2023-07-08T04:31:46;17.10;82.40
680;DHT22;322;48.846;9.230;2023-07-08T04:34:15;17.20;84.20
680;DHT22;322;48.846;9.230;2023-07-08T04:36:43;17.20;81.90
680;DHT22;322;48.846;9.230;2023-07-08T04:39:12;17.20;82.30
680;DHT22;322;48.846;9.230;2023-07-08T04:41:41;17.40;82.10
680;DHT22;322;48.846;9.230;2023-07-08T04:44:12;17.40;82.10
680;DHT22;322;48.846;9.230;2023-07-08T04:46:42;17.70;80.90
680;DHT22;322;48.846;9.230;2023-07-08T04:49:12;18.00;77.10
680;DHT22;322;48.846;9.230;2023-07-08T04:51:40;18.20;75.10
680;DHT22;322;48.846;9.230;2023-07-08T04:54:09;18.40;77.80
680;DHT22;322;48.846;9.230;2023-07-08T04:56:38;18.60;74.60
680;DHT22;322;48.846;9.230;2023-07-08T04:59:08;18.70;74.80
680;DHT22;322;48.846;9.230;2023-07-08T05:01:38;18.90;74.50
680;DHT22;322;48.846;9.230;2023-07-08T05:04:07;19.10;75.80
680;DHT22;322;48.846;9.230;2023-07-08T05:06:35;19.50;75.50
680;DHT22;322;48.846;9.230;2023-07-08T05:09:03;19.70;78.90
680;DHT22;322;48.846;9.230;2023-07-08T05:11:32;19.80;72.00
680;DHT22;322;48.846;9.230;2023-07-08T05:14:00;19.80;76.20
680;DHT22;322;48.846;9.230;2023-07-08T05:16:28;19.70;74.80
680;DHT22;322;48.846;9.230;2023-07-08T05:18:58;19.70;70.20
680;DHT22;322;48.846;9.230;2023-07-08T05:21:29;19.70;74.40
680;DHT22;322;48.846;9.230;2023-07-08T05:24:00;19.60;70.10
680;DHT22;322;48.846;9.230;2023-07-08T05:26:28;19.60;70.10
680;DHT22;322;48.846;9.230;2023-07-08T05:28:56;19.70;71.60
680;DHT22;322;48.846;9.230;2023-07-08T05:31:24;19.70;73.50
680;DHT22;322;48.846;9.230;2023-07-08T05:34:09;19.90;71.10
680;DHT22;322;48.846;9.230;2023-07-08T05:36:37;20.20;70.60
680;DHT22;322;48.846;9.230;2023-07-08T05:39:05;20.40;69.20
680;DHT22;322;48.846;9.230;2023-07-08T05:41:34;20.80;69.90
680;DHT22;322;48.846;9.230;2023-07-08T05:44:02;21.00;71.10
680;DHT22;322;48.846;9.230;2023-07-08T05:46:30;21.00;70.50
680;DHT22;322;48.846;9.230;2023-07-08T05:48:58;21.10;72.40
680;DHT22;322;48.846;9.230;2023-07-08T05:51:29;21.20;67.90
680;DHT22;322;48.846;9.230;2023-07-08T05:53:57;21.40;68.80
680;DHT22;322;48.846;9.230;2023-07-08T05:56:25;21.40;71.10
680;DHT22;322;48.846;9.230;2023-07-08T05:58:52;21.30;70.00
680;DHT22;322;48.846;9.230;2023-07-08T06:01:20;21.20;66.70
680;DHT22;322;48.846;9.230;2023-07-08T06:03:48;21.20;67.70
680;DHT22;322;48.846;9.230;2023-07-08T06:06:17;21.20;66.40
680;DHT22;322;48.846;9.230;2023-07-08T06:08:46;21.20;66.90
680;DHT22;322;48.846;9.230;2023-07-08T06:11:14;21.10;68.00
680;DHT22;322;48.846;9.230;2023-07-08T06:13:42;21.30;66.40
680;DHT22;322;48.846;9.230;2023-07-08T06:16:10;21.40;65.30
680;DHT22;322;48.846;9.230;2023-07-08T06:18:38;21.50;65.70
680;DHT22;322;48.846;9.230;2023-07-08T06:21:06;21.60;65.30
680;DHT22;322;48.846;9.230;2023-07-08T06:23:34;21.70;63.60
680;DHT22;322;48.846;9.230;2023-07-08T06:26:04;21.80;63.30
680;DHT22;322;48.846;9.230;2023-07-08T06:28:31;21.90;70.10
680;DHT22;322;48.846;9.230;2023-07-08T06:30:59;22.00;67.20
680;DHT22;322;48.846;9.230;2023-07-08T06:33:28;22.30;63.50
680;DHT22;322;48.846;9.230;2023-07-08T06:35:56;22.40;67.20
680;DHT22;322;48.846;9.230;2023-07-08T06:38:24;22.70;61.70
680;DHT22;322;48.846;9.230;2023-07-08T06:40:52;22.80;62.70
680;DHT22;322;48.846;9.230;2023-07-08T06:43:21;23.00;61.40
680;DHT22;322;48.846;9.230;2023-07-08T06:45:49;23.20;60.90
680;DHT22;322;48.846;9.230;2023-07-08T06:48:17;23.40;60.70
680;DHT22;322;48.846;9.230;2023-07-08T06:50:46;23.50;58.40
680;DHT22;322;48.846;9.230;2023-07-08T06:53:14;23.80;58.00
680;DHT22;322;48.846;9.230;2023-07-08T06:55:44;24.10;58.20
680;DHT22;322;48.846;9.230;2023-07-08T06:58:12;24.40;56.70
680;DHT22;322;48.846;9.230;2023-07-08T07:00:42;24.70;55.90
680;DHT22;322;48.846;9.230;2023-07-08T07:03:11;25.00;54.60
680;DHT22;322;48.846;9.230;2023-07-08T07:05:40;25.30;53.70
680;DHT22;322;48.846;9.230;2023-07-08T07:08:08;25.70;53.50
680;DHT22;322;48.846;9.230;2023-07-08T07:10:36;26.10;52.40
680;DHT22;322;48.846;9.230;2023-07-08T07:13:04;26.30;51.90
680;DHT22;322;48.846;9.230;2023-07-08T07:15:32;26.50;51.90
680;DHT22;322;48.846;9.230;2023-07-08T07:18:02;26.70;50.70
680;DHT22;322;48.846;9.230;2023-07-08T07:20:30;26.90;49.80
680;DHT22;322;48.846;9.230;2023-07-08T07:22:58;27.00;51.00
680;DHT22;322;48.846;9.230;2023-07-08T07:25:26;27.20;49.80
680;DHT22;322;48.846;9.230;2023-07-08T07:27:54;27.30;49.40
680;DHT22;322;48.846;9.230;2023-07-08T07:30:22;27.50;47.30
680;DHT22;322;48.846;9.230;2023-07-08T07:32:50;27.60;49.10
680;DHT22;322;48.846;9.230;2023-07-08T07:35:19;27.60;50.50
680;DHT22;322;48.846;9.230;2023-07-08T07:37:47;27.70;50.70
680;DHT22;322;48.846;9.230;2023-07-08T07:40:17;27.70;51.60
680;DHT22;322;48.846;9.230;2023-07-08T07:42:46;27.80;51.10
680;DHT22;322;48.846;9.230;2023-07-08T07:45:14;27.80;48.10
680;DHT22;322;48.846;9.230;2023-07-08T07:47:42;27.80;50.50
680;DHT22;322;48.846;9.230;2023-07-08T07:50:11;27.80;51.50
680;DHT22;322;48.846;9.230;2023-07-08T07:52:40;27.80;50.80
680;DHT22;322;48.846;9.230;2023-07-08T07:55:11;27.90;50.60
680;DHT22;322;48.846;9.230;2023-07-08T07:57:40;28.00;50.30
680;DHT22;322;48.846;9.230;2023-07-08T08:00:09;28.10;48.40
680;DHT22;322;48.846;9.230;2023-07-08T08:02:37;28.30;49.40
680;DHT22;322;48.846;9.230;2023-07-08T08:05:06;28.30;49.60
680;DHT22;322;48.846;9.230;2023-07-08T08:07:34;28.20;49.30
680;DHT22;322;48.846;9.230;2023-07-08T08:10:05;28.30;48.70
680;DHT22;322;48.846;9.230;2023-07-08T08:12:34;28.40;48.90
680;DHT22;322;48.846;9.230;2023-07-08T08:15:17;28.50;46.30
680;DHT22;322;48.846;9.230;2023-07-08T08:17:45;28.10;46.00
680;DHT22;322;48.846;9.230;2023-07-08T08:20:16;28.00;46.60
680;DHT22;322;48.846;9.230;2023-07-08T08:22:45;28.00;47.00
680;DHT22;322;48.846;9.230;2023-07-08T08:25:14;28.10;46.00
680;DHT22;322;48.846;9.230;2023-07-08T08:27:42;28.10;45.80
680;DHT22;322;48.846;9.230;2023-07-08T08:30:11;28.00;46.60
680;DHT22;322;48.846;9.230;2023-07-08T08:32:40;28.00;46.80
680;DHT22;322;48.846;9.230;2023-07-08T08:35:08;28.00;45.60
680;DHT22;322;48.846;9.230;2023-07-08T08:37:36;28.00;46.30
680;DHT22;322;48.846;9.230;2023-07-08T08:40:05;28.20;46.20
680;DHT22;322;48.846;9.230;2023-07-08T08:42:41;28.20;46.20
680;DHT22;322;48.846;9.230;2023-07-08T08:45:12;28.30;46.10
680;DHT22;322;48.846;9.230;2023-07-08T08:47:42;28.50;45.70
680;DHT22;322;48.846;9.230;2023-07-08T08:50:24;28.80;46.10
680;DHT22;322;48.846;9.230;2023-07-08T08:52:55;28.90;45.60
680;DHT22;322;48.846;9.230;2023-07-08T08:55:24;28.80;45.10
680;DHT22;322;48.846;9.230;2023-07-08T08:58:01;28.80;45.60
680;DHT22;322;48.846;9.230;2023-07-08T09:00:41;29.00;45.00
680;DHT22;322;48.846;9.230;2023-07-08T09:03:14;29.20;46.10
680;DHT22;322;48.846;9.230;2023-07-08T09:05:45;29.40;44.20
680;DHT22;322;48.846;9.230;2023-07-08T09:08:16;29.60;44.00
680;DHT22;322;48.846;9.230;2023-07-08T09:10:51;29.80;44.90
680;DHT22;322;48.846;9.230;2023-07-08T09:13:24;30.00;43.00
680;DHT22;322;48.846;9.230;2023-07-08T09:15:57;30.10;41.60
680;DHT22;322;48.846;9.230;2023-07-08T09:18:48;30.40;42.90
680;DHT22;322;48.846;9.230;2023-07-08T09:21:22;30.60;42.00
680;DHT22;322;48.846;9.230;2023-07-08T09:23:56;30.80;41.70
680;DHT22;322;48.846;9.230;2023-07-08T09:26:29;30.90;42.00
680;DHT22;322;48.846;9.230;2023-07-08T09:28:59;31.10;40.60
680;DHT22;322;48.846;9.230;2023-07-08T09:31:30;31.20;40.50
680;DHT22;322;48.846;9.230;2023-07-08T09:34:09;31.40;40.80
680;DHT22;322;48.846;9.230;2023-07-08T09:36:40;31.50;39.20
680;DHT22;322;48.846;9.230;2023-07-08T09:39:13;31.20;38.90
680;DHT22;322;48.846;9.230;2023-07-08T09:41:44;31.20;41.50
680;DHT22;322;48.846;9.230;2023-07-08T09:44:17;31.30;42.00
680;DHT22;322;48.846;9.230;2023-07-08T09:46:46;31.50;40.50
680;DHT22;322;48.846;9.230;2023-07-08T09:49:20;31.70;39.20
680;DHT22;322;48.846;9.230;2023-07-08T09:51:50;31.90;39.10
680;DHT22;322;48.846;9.230;2023-07-08T09:54:20;31.90;38.90
680;DHT22;322;48.846;9.230;2023-07-08T09:56:58;31.70;39.20
680;DHT22;322;48.846;9.230;2023-07-08T09:59:33;31.80;38.80
680;DHT22;322;48.846;9.230;2023-07-08T10:02:25;32.20;38.30
680;DHT22;322;48.846;9.230;2023-07-08T10:04:56;32.70;38.20
680;DHT22;322;48.846;9.230;2023-07-08T10:07:28;33.40;37.10
680;DHT22;322;48.846;9.230;2023-07-08T10:09:59;34.00;35.10
680;DHT22;322;48.846;9.230;2023-07-08T10:12:27;34.50;35.60
680;DHT22;322;48.846;9.230;2023-07-08T10:15:00;34.90;35.20
680;DHT22;322;48.846;9.230;2023-07-08T10:17:29;34.80;33.40
680;DHT22;322;48.846;9.230;2023-07-08T10:19:58;34.50;34.50
680;DHT22;322;48.846;9.230;2023-07-08T10:22:34;34.40;34.30
680;DHT22;322;48.846;9.230;2023-07-08T10:25:23;34.40;35.00
680;DHT22;322;48.846;9.230;2023-07-08T10:27:59;34.90;35.40
680;DHT22;322;48.846;9.230;2023-07-08T10:30:32;35.40;35.50
680;DHT22;322;48.846;9.230;2023-07-08T10:33:30;36.00;34.60
680;DHT22;322;48.846;9.230;2023-07-08T10:36:15;36.20;32.00
680;DHT22;322;48.846;9.230;2023-07-08T10:38:59;35.10;33.40
680;DHT22;322;48.846;9.230;2023-07-08T10:41:51;34.00;36.20
680;DHT22;322;48.846;9.230;2023-07-08T10:44:26;33.30;37.80
680;DHT22;322;48.846;9.230;2023-07-08T10:47:03;32.70;39.00
680;DHT22;322;48.846;9.230;2023-07-08T10:49:44;32.50;38.80
680;DHT22;322;48.846;9.230;2023-07-08T10:52:37;32.70;38.60
680;DHT22;322;48.846;9.230;2023-07-08T10:55:17;33.20;39.00
680;DHT22;322;48.846;9.230;2023-07-08T10:58:11;34.00;37.00
680;DHT22;322;48.846;9.230;2023-07-08T11:01:00;34.60;35.60
680;DHT22;322;48.846;9.230;2023-07-08T11:06:43;35.10;35.30
680;DHT22;322;48.846;9.230;2023-07-08T11:09:15;35.30;36.20
680;DHT22;322;48.846;9.230;2023-07-08T11:11:49;35.60;33.70
680;DHT22;322;48.846;9.230;2023-07-08T11:14:24;35.80;33.80
680;DHT22;322;48.846;9.230;2023-07-08T11:16:57;36.10;34.30
680;DHT22;322;48.846;9.230;2023-07-08T11:19:34;36.30;32.80
680;DHT22;322;48.846;9.230;2023-07-08T11:22:08;36.50;32.40
680;DHT22;322;48.846;9.230;2023-07-08T11:24:42;36.50;31.80
680;DHT22;322;48.846;9.230;2023-07-08T11:27:15;36.60;32.90
680;DHT22;322;48.846;9.230;2023-07-08T11:29:49;36.70;35.10
680;DHT22;322;48.846;9.230;2023-07-08T11:32:19;37.10;30.80
680;DHT22;322;48.846;9.230;2023-07-08T11:34:51;37.10;30.70
680;DHT22;322;48.846;9.230;2023-07-08T11:37:21;37.50;31.10
680;DHT22;322;48.846;9.230;2023-07-08T11:39:54;38.10;28.90
680;DHT22;322;48.846;9.230;2023-07-08T11:42:25;38.10;29.30
680;DHT22;322;48.846;9.230;2023-07-08T11:44:59;38.10;29.50
680;DHT22;322;48.846;9.230;2023-07-08T11:47:36;38.20;30.00
680;DHT22;322;48.846;9.230;2023-07-08T11:50:20;38.60;29.10
680;DHT22;322;48.846;9.230;2023-07-08T11:52:54;38.60;29.40
680;DHT22;322;48.846;9.230;2023-07-08T11:55:25;39.10;29.60
680;DHT22;322;48.846;9.230;2023-07-08T11:57:59;39.40;28.70
680;DHT22;322;48.846;9.230;2023-07-08T12:00:31;39.40;27.60
680;DHT22;322;48.846;9.230;2023-07-08T12:03:12;39.30;28.10
680;DHT22;322;48.846;9.230;2023-07-08T12:05:47;38.90;28.50
680;DHT22;322;48.846;9.230;2023-07-08T12:08:18;39.20;28.60
680;DHT22;322;48.846;9.230;2023-07-08T12:10:50;39.70;27.70
680;DHT22;322;48.846;9.230;2023-07-08T12:13:22;40.00;27.50
680;DHT22;322;48.846;9.230;2023-07-08T12:15:52;39.90;28.60
680;DHT22;322;48.846;9.230;2023-07-08T12:18:24;40.10;27.60
680;DHT22;322;48.846;9.230;2023-07-08T12:20:56;40.30;26.90
680;DHT22;322;48.846;9.230;2023-07-08T12:23:26;40.40;27.30
680;DHT22;322;48.846;9.230;2023-07-08T12:25:55;40.50;28.50
680;DHT22;322;48.846;9.230;2023-07-08T12:28:23;40.60;27.50
680;DHT22;322;48.846;9.230;2023-07-08T12:30:52;40.60;26.40
680;DHT22;322;48.846;9.230;2023-07-08T12:33:25;40.60;26.60
680;DHT22;322;48.846;9.230;2023-07-08T12:35:56;40.30;25.70
680;DHT22;322;48.846;9.230;2023-07-08T12:38:30;39.30;26.60
680;DHT22;322;48.846;9.230;2023-07-08T12:41:00;39.00;27.40
680;DHT22;322;48.846;9.230;2023-07-08T12:43:30;39.00;28.40
680;DHT22;322;48.846;9.230;2023-07-08T12:45:58;39.70;27.50
680;DHT22;322;48.846;9.230;2023-07-08T12:48:31;40.30;27.30
680;DHT22;322;48.846;9.230;2023-07-08T12:51:02;40.60;25.60
680;DHT22;322;48.846;9.230;2023-07-08T12:53:31;41.00;26.50
680;DHT22;322;48.846;9.230;2023-07-08T12:56:01;41.40;26.10
680;DHT22;322;48.846;9.230;2023-07-08T12:58:32;41.70;26.00
680;DHT22;322;48.846;9.230;2023-07-08T13:01:02;42.30;25.90
680;DHT22;322;48.846;9.230;2023-07-08T13:03:35;42.40;26.10
680;DHT22;322;48.846;9.230;2023-07-08T13:06:07;42.90;25.90
680;DHT22;322;48.846;9.230;2023-07-08T13:08:38;42.90;23.90
680;DHT22;322;48.846;9.230;2023-07-08T13:11:07;42.00;23.80
680;DHT22;322;48.846;9.230;2023-07-08T13:13:38;40.80;25.00
680;DHT22;322;48.846;9.230;2023-07-08T13:16:08;40.60;26.30
680;DHT22;322;48.846;9.230;2023-07-08T13:18:39;41.00;25.00
680;DHT22;322;48.846;9.230;2023-07-08T13:21:12;41.30;25.30
680;DHT22;322;48.846;9.230;2023-07-08T13:23:41;41.90;25.50
680;DHT22;322;48.846;9.230;2023-07-08T13:26:13;42.50;24.90
680;DHT22;322;48.846;9.230;2023-07-08T13:28:42;43.10;26.10
680;DHT22;322;48.846;9.230;2023-07-08T13:31:16;43.50;24.30
680;DHT22;322;48.846;9.230;2023-07-08T13:33:51;43.60;24.30
680;DHT22;322;48.846;9.230;2023-07-08T13:36:28;43.50;24.70
680;DHT22;322;48.846;9.230;2023-07-08T13:38:56;43.70;24.20
680;DHT22;322;48.846;9.230;2023-07-08T13:41:24;44.00;24.70
680;DHT22;322;48.846;9.230;2023-07-08T13:43:53;44.10;24.00
680;DHT22;322;48.846;9.230;2023-07-08T13:46:33;44.60;25.10
680;DHT22;322;48.846;9.230;2023-07-08T13:49:02;44.70;23.70
680;DHT22;322;48.846;9.230;2023-07-08T13:51:32;44.80;23.50
680;DHT22;322;48.846;9.230;2023-07-08T13:54:09;44.60;23.50
680;DHT22;322;48.846;9.230;2023-07-08T13:56:41;45.00;22.70
680;DHT22;322;48.846;9.230;2023-07-08T13:59:10;45.30;22.00
680;DHT22;322;48.846;9.230;2023-07-08T14:01:40;45.40;22.90
680;DHT22;322;48.846;9.230;2023-07-08T14:04:11;45.50;23.00
680;DHT22;322;48.846;9.230;2023-07-08T14:06:41;45.70;22.90
680;DHT22;322;48.846;9.230;2023-07-08T14:09:12;46.20;22.20
680;DHT22;322;48.846;9.230;2023-07-08T14:11:41;46.40;21.40
680;DHT22;322;48.846;9.230;2023-07-08T14:14:10;46.30;22.00
680;DHT22;322;48.846;9.230;2023-07-08T14:16:40;46.20;21.30
680;DHT22;322;48.846;9.230;2023-07-08T14:19:14;45.50;21.40
680;DHT22;322;48.846;9.230;2023-07-08T14:21:45;45.30;21.30
680;DHT22;322;48.846;9.230;2023-07-08T14:24:14;45.20;22.00
680;DHT22;322;48.846;9.230;2023-07-08T14:26:43;45.30;22.10
680;DHT22;322;48.846;9.230;2023-07-08T14:29:11;45.40;21.60
680;DHT22;322;48.846;9.230;2023-07-08T14:31:39;44.80;22.50
680;DHT22;322;48.846;9.230;2023-07-08T14:34:11;44.80;21.50
680;DHT22;322;48.846;9.230;2023-07-08T14:36:39;44.50;21.80
680;DHT22;322;48.846;9.230;2023-07-08T14:39:11;44.50;22.80
680;DHT22;322;48.846;9.230;2023-07-08T14:41:40;44.40;21.40
680;DHT22;322;48.846;9.230;2023-07-08T14:44:19;44.50;22.40
680;DHT22;322;48.846;9.230;2023-07-08T14:46:48;44.80;22.80
680;DHT22;322;48.846;9.230;2023-07-08T14:49:18;45.40;22.90
680;DHT22;322;48.846;9.230;2023-07-08T14:51:46;46.10;22.20
680;DHT22;322;48.846;9.230;2023-07-08T14:54:16;46.60;21.70
680;DHT22;322;48.846;9.230;2023-07-08T14:56:45;46.70;21.60
680;DHT22;322;48.846;9.230;2023-07-08T14:59:17;46.40;21.40
680;DHT22;322;48.846;9.230;2023-07-08T15:01:46;45.70;21.50
680;DHT22;322;48.846;9.230;2023-07-08T15:04:16;44.60;22.00
680;DHT22;322;48.846;9.230;2023-07-08T15:06:45;43.00;22.90
680;DHT22;322;48.846;9.230;2023-07-08T15:09:13;42.60;23.60
680;DHT22;322;48.846;9.230;2023-07-08T15:11:42;42.70;23.80
680;DHT22;322;48.846;9.230;2023-07-08T15:14:18;43.30;23.50
680;DHT22;322;48.846;9.230;2023-07-08T15:16:47;43.90;23.10
680;DHT22;322;48.846;9.230;2023-07-08T15:19:17;44.40;22.20
680;DHT22;322;48.846;9.230;2023-07-08T15:21:46;44.70;22.50
680;DHT22;322;48.846;9.230;2023-07-08T15:24:15;45.30;22.30
680;DHT22;322;48.846;9.230;2023-07-08T15:26:46;45.50;22.20
680;DHT22;322;48.846;9.230;2023-07-08T15:29:17;45.90;21.50
680;DHT22;322;48.846;9.230;2023-07-08T15:31:45;45.60;21.50
680;DHT22;322;48.846;9.230;2023-07-08T15:34:15;45.00;21.90
680;DHT22;322;48.846;9.230;2023-07-08T15:36:43;44.40;22.00
680;DHT22;322;48.846;9.230;2023-07-08T15:39:11;43.40;22.40
680;DHT22;322;48.846;9.230;2023-07-08T15:41:41;42.90;23.60
680;DHT22;322;48.846;9.230;2023-07-08T15:44:11;42.10;23.20
680;DHT22;322;48.846;9.230;2023-07-08T15:46:41;41.70;24.20
680;DHT22;322;48.846;9.230;2023-07-08T15:49:14;41.60;23.80
680;DHT22;322;48.846;9.230;2023-07-08T15:51:43;41.20;23.80
680;DHT22;322;48.846;9.230;2023-07-08T15:54:16;40.80;24.20
680;DHT22;322;48.846;9.230;2023-07-08T15:56:44;40.70;25.20
680;DHT22;322;48.846;9.230;2023-07-08T15:59:17;41.30;24.70
680;DHT22;322;48.846;9.230;2023-07-08T16:01:48;42.10;24.00
680;DHT22;322;48.846;9.230;2023-07-08T16:04:23;41.90;23.50
680;DHT22;322;48.846;9.230;2023-07-08T16:06:51;41.80;23.70
680;DHT22;322;48.846;9.230;2023-07-08T16:09:19;41.50;23.70
680;DHT22;322;48.846;9.230;2023-07-08T16:11:47;41.50;23.90
680;DHT22;322;48.846;9.230;2023-07-08T16:14:18;40.50;24.50
680;DHT22;322;48.846;9.230;2023-07-08T16:16:46;39.90;25.80
680;DHT22;322;48.846;9.230;2023-07-08T16:19:14;39.60;24.70
680;DHT22;322;48.846;9.230;2023-07-08T16:21:42;39.60;25.70
680;DHT22;322;48.846;9.230;2023-07-08T16:24:10;40.10;25.20
680;DHT22;322;48.846;9.230;2023-07-08T16:26:39;40.00;25.10
680;DHT22;322;48.846;9.230;2023-07-08T16:29:09;38.90;25.70
680;DHT22;322;48.846;9.230;2023-07-08T16:31:42;38.70;25.90
680;DHT22;322;48.846;9.230;2023-07-08T16:34:13;38.30;26.00
680;DHT22;322;48.846;9.230;2023-07-08T16:36:42;38.00;26.60
680;DHT22;322;48.846;9.230;2023-07-08T16:39:10;38.40;27.20
680;DHT22;322;48.846;9.230;2023-07-08T16:41:37;39.00;27.00
680;DHT22;322;48.846;9.230;2023-07-08T16:44:12;39.60;26.20
680;DHT22;322;48.846;9.230;2023-07-08T16:46:42;39.90;26.00
680;DHT22;322;48.846;9.230;2023-07-08T16:49:11;40.20;25.60
680;DHT22;322;48.846;9.230;2023-07-08T16:51:39;40.30;26.30
680;DHT22;322;48.846;9.230;2023-07-08T16:54:12;40.50;26.40
680;DHT22;322;48.846;9.230;2023-07-08T16:56:41;40.50;25.60
680;DHT22;322;48.846;9.230;2023-07-08T16:59:10;40.60;26.50
680;DHT22;322;48.846;9.230;2023-07-08T17:01:38;40.40;25.80